Time;durP1;ratioP1;P1;durP2;ratioP2;P2;SDS_P1;SDS_P2;PMS_P1;PMS_P2;Temp;Humidity;BMP_temperature;BMP_pressure;BME280_temperature;BME280_humidity;BME280_pressure;Samples;Min_cycle;Max_cycle;Signal;HPM_P1;HPM_P2
2022/01/07 00:01:32;;;;;;;6.28;4.15;;;5.70;99.90;;;;;;4899055;29;20024;-78
2022/01/07 00:03:58;;;;;;;6.78;4.20;;;5.70;99.90;;;;;;4907499;29;20036;-78
2022/01/07 00:06:24;;;;;;;6.25;3.67;;;5.60;99.90;;;;;;4901324;29;20084;-78
2022/01/07 00:08:50;;;;;;;5.18;3.30;;;5.60;99.90;;;;;;4898980;29;20084;-78
2022/01/07 00:11:16;;;;;;;4.38;3.08;;;5.60;99.90;;;;;;4898830;29;20032;-77
2022/01/07 00:13:42;;;;;;;4.63;3.05;;;5.60;99.90;;;;;;4900004;29;20430;-77
2022/01/07 00:16:08;;;;;;;5.72;3.17;;;5.60;99.90;;;;;;4907325;29;20370;-78
2022/01/07 00:18:33;;;;;;;4.70;3.53;;;5.70;99.90;;;;;;4890021;29;20032;-78
2022/01/07 00:21:00;;;;;;;3.70;2.85;;;5.70;99.90;;;;;;4881926;29;20429;-77
2022/01/07 00:23:25;;;;;;;5.32;3.38;;;5.70;99.90;;;;;;4899128;29;20035;-78
2022/01/07 00:25:52;;;;;;;3.75;3.00;;;5.60;99.90;;;;;;4899825;29;20040;-77
2022/01/07 00:28:18;;;;;;;3.38;2.50;;;5.70;99.90;;;;;;4907964;29;20077;-78
2022/01/07 00:30:45;;;;;;;5.03;3.03;;;5.60;99.90;;;;;;4898581;29;20039;-77
2022/01/07 00:33:10;;;;;;;4.75;2.67;;;5.60;99.90;;;;;;4898942;29;20025;-77
2022/01/07 00:35:36;;;;;;;5.70;3.00;;;5.60;99.90;;;;;;4898817;29;20031;-77
2022/01/07 00:38:03;;;;;;;3.58;2.55;;;5.60;99.90;;;;;;4900364;29;20062;-77
2022/01/07 00:40:29;;;;;;;4.00;2.50;;;5.60;99.90;;;;;;4906788;29;20076;-76
2022/01/07 00:42:55;;;;;;;2.97;2.55;;;5.60;99.90;;;;;;4898219;29;20028;-77
2022/01/07 00:45:23;;;;;;;5.05;3.00;;;5.60;99.90;;;;;;4898498;29;20025;-77
2022/01/07 00:47:49;;;;;;;3.65;2.60;;;5.60;99.90;;;;;;4898623;29;20033;-78
2022/01/07 00:50:17;;;;;;;5.13;2.58;;;5.60;99.90;;;;;;4898518;29;20115;-78
2022/01/07 00:52:43;;;;;;;3.97;2.80;;;5.50;99.90;;;;;;4898497;29;20029;-77
2022/01/07 00:55:11;;;;;;;3.40;2.78;;;5.60;99.90;;;;;;4897553;29;20048;-77
2022/01/07 00:57:36;;;;;;;5.03;2.60;;;5.50;99.90;;;;;;4897403;29;20418;-76
2022/01/07 01:00:08;;;;;;;4.95;2.67;;;5.60;99.90;;;;;;4898289;29;20036;-77
2022/01/07 01:02:34;;;;;;;;;;;5.50;99.90;;;;;;4898532;29;20028;-77
2022/01/07 01:05:00;;;;;;;2.53;2.30;;;5.50;99.90;;;;;;4897612;29;19908;-76
2022/01/07 01:07:26;;;;;;;4.75;2.40;;;5.50;99.90;;;;;;4897811;29;20093;-77
2022/01/07 01:09:52;;;;;;;3.08;2.20;;;5.50;99.90;;;;;;4897770;29;20033;-77
2022/01/07 01:12:17;;;;;;;2.60;2.15;;;5.40;99.90;;;;;;4898034;29;20021;-76
2022/01/07 01:14:43;;;;;;;3.33;2.28;;;5.40;99.90;;;;;;4897744;29;20469;-78
2022/01/07 01:17:09;;;;;;;2.95;2.15;;;5.40;99.90;;;;;;4883637;29;20036;-78
2022/01/07 01:19:35;;;;;;;2.50;2.10;;;5.40;99.90;;;;;;4908273;29;20096;-76
2022/01/07 01:22:01;;;;;;;2.65;2.33;;;5.40;99.90;;;;;;4905834;29;20108;-78
2022/01/07 01:24:27;;;;;;;2.45;2.10;;;5.50;99.90;;;;;;4897532;29;20433;-78
2022/01/07 01:26:52;;;;;;;3.30;1.90;;;5.40;99.90;;;;;;4897401;29;20036;-77
2022/01/07 01:29:20;;;;;;;3.58;2.45;;;5.50;99.90;;;;;;4897978;29;20048;-77
2022/01/07 01:31:46;;;;;;;3.13;2.10;;;5.50;99.90;;;;;;4907893;29;20033;-77
2022/01/07 01:34:13;;;;;;;2.75;2.20;;;5.40;99.90;;;;;;4897818;29;20390;-75
2022/01/07 01:36:39;;;;;;;2.42;2.00;;;5.40;99.90;;;;;;4897986;29;20032;-78
2022/01/07 01:39:05;;;;;;;3.50;2.33;;;5.50;99.90;;;;;;4896965;29;20029;-77
2022/01/07 01:41:32;;;;;;;2.45;2.17;;;5.50;99.90;;;;;;4902313;29;20028;-77
2022/01/07 01:43:57;;;;;;;2.03;1.75;;;5.50;99.90;;;;;;4902639;29;20029;-77
2022/01/07 01:46:24;;;;;;;2.15;1.92;;;5.50;99.90;;;;;;4897234;29;20091;-76
2022/01/07 01:48:49;;;;;;;3.05;2.33;;;5.50;99.90;;;;;;4897476;29;20024;-77
2022/01/07 01:51:15;;;;;;;1.92;1.60;;;5.40;99.90;;;;;;4897904;29;20553;-77
2022/01/07 01:53:41;;;;;;;3.38;2.00;;;5.50;99.90;;;;;;4897067;29;20025;-76
2022/01/07 01:56:07;;;;;;;2.33;2.05;;;5.50;99.90;;;;;;4897490;29;20500;-78
2022/01/07 01:58:33;;;;;;;3.35;2.10;;;5.50;99.90;;;;;;4897480;29;20064;-78
2022/01/07 02:00:59;;;;;;;2.85;2.28;;;5.40;99.90;;;;;;4897505;29;20037;-77
2022/01/07 02:03:24;;;;;;;3.85;2.17;;;5.40;99.90;;;;;;4880839;29;20036;-77
2022/01/07 02:05:50;;;;;;;2.30;1.88;;;5.40;99.90;;;;;;4897554;29;20474;-77
2022/01/07 02:08:16;;;;;;;1.95;1.73;;;5.40;99.90;;;;;;4899411;29;20417;-77
2022/01/07 02:10:42;;;;;;;3.78;2.15;;;5.40;99.90;;;;;;4901142;29;20072;-77
2022/01/07 02:13:08;;;;;;;2.10;1.90;;;5.30;99.90;;;;;;4901027;29;20479;-77
2022/01/07 02:15:34;;;;;;;1.83;1.60;;;5.30;99.90;;;;;;4901000;29;20040;-77
2022/01/07 02:18:00;;;;;;;5.10;1.88;;;5.30;99.90;;;;;;4909021;29;20397;-77
2022/01/07 02:20:28;;;;;;;3.00;2.40;;;5.30;99.90;;;;;;4903976;29;20043;-78
2022/01/07 02:22:56;;;;;;;3.58;2.03;;;5.30;99.90;;;;;;4886152;29;20028;-77
2022/01/07 02:25:22;;;;;;;3.13;2.00;;;5.30;99.90;;;;;;4908774;29;20115;-77
2022/01/07 02:27:48;;;;;;;2.13;2.00;;;5.30;99.90;;;;;;4900503;29;20040;-76
2022/01/07 02:30:17;;;;;;;2.58;2.08;;;5.30;99.90;;;;;;4900700;29;20052;-78
2022/01/07 02:32:44;;;;;;;2.80;2.30;;;5.30;99.90;;;;;;4903319;29;20081;-75
2022/01/07 02:35:10;;;;;;;2.63;1.90;;;5.30;99.90;;;;;;4908740;29;20037;-77
2022/01/07 02:37:36;;;;;;;4.53;1.88;;;5.30;99.90;;;;;;4904546;29;20046;-77
2022/01/07 02:40:04;;;;;;;2.30;2.10;;;5.20;99.90;;;;;;4885134;29;20553;-78
2022/01/07 02:42:30;;;;;;;3.53;2.22;;;5.20;99.90;;;;;;4900764;29;20076;-77
2022/01/07 02:44:55;;;;;;;3.92;2.05;;;5.20;99.90;;;;;;4911069;29;20028;-78
2022/01/07 02:47:21;;;;;;;5.40;2.05;;;5.20;99.90;;;;;;4900220;29;20032;-78
2022/01/07 02:49:48;;;;;;;3.40;2.13;;;5.20;99.90;;;;;;4900151;29;20111;-78
2022/01/07 02:52:14;;;;;;;3.15;2.00;;;5.20;99.90;;;;;;4900541;29;20076;-77
2022/01/07 02:54:40;;;;;;;2.15;1.90;;;5.10;99.90;;;;;;4900606;29;20080;-77
2022/01/07 02:57:06;;;;;;;2.55;2.00;;;5.10;99.90;;;;;;4906093;29;20459;-77
2022/01/07 02:59:33;;;;;;;2.33;2.03;;;5.10;99.90;;;;;;4905128;29;20056;-78
2022/01/07 03:01:59;;;;;;;2.42;2.00;;;5.10;99.90;;;;;;4903547;29;20024;-77
2022/01/07 03:04:26;;;;;;;2.97;2.20;;;5.10;99.90;;;;;;4904875;29;20024;-77
2022/01/07 03:06:52;;;;;;;3.40;1.90;;;5.10;99.90;;;;;;4900424;29;20095;-77
2022/01/07 03:09:18;;;;;;;3.92;2.38;;;5.10;99.90;;;;;;4900065;29;20083;-78
2022/01/07 03:11:44;;;;;;;2.78;2.20;;;5.00;99.90;;;;;;4900075;29;20099;-77
2022/01/07 03:14:09;;;;;;;3.75;2.35;;;5.00;99.90;;;;;;4899941;29;20028;-77
2022/01/07 03:16:35;;;;;;;2.38;1.88;;;4.90;99.90;;;;;;4900255;29;20051;-76
2022/01/07 03:19:01;;;;;;;3.05;2.40;;;4.90;99.90;;;;;;4907684;29;20028;-77
2022/01/07 03:21:27;;;;;;;3.55;2.38;;;4.90;99.90;;;;;;4901672;29;20059;-77
2022/01/07 03:23:53;;;;;;;5.07;2.40;;;4.90;99.90;;;;;;4901073;29;20032;-78
2022/01/07 03:26:19;;;;;;;3.13;2.50;;;4.90;99.90;;;;;;4909688;29;20373;-77
2022/01/07 03:28:46;;;;;;;3.60;2.55;;;4.90;99.90;;;;;;4899602;29;20053;-78
2022/01/07 03:31:12;;;;;;;3.72;2.50;;;4.90;99.90;;;;;;4899863;29;20033;-78
2022/01/07 03:33:37;;;;;;;3.55;2.83;;;4.80;99.90;;;;;;4900047;29;20035;-78
2022/01/07 03:36:04;;;;;;;3.10;2.50;;;4.80;99.90;;;;;;4910254;29;20038;-77
2022/01/07 03:38:29;;;;;;;3.17;2.75;;;4.80;99.90;;;;;;4899669;29;20024;-78
2022/01/07 03:40:55;;;;;;;3.10;2.50;;;4.80;99.90;;;;;;4899775;29;20397;-77
2022/01/07 03:43:22;;;;;;;5.00;3.03;;;4.80;99.90;;;;;;4899842;29;20043;-78
2022/01/07 03:45:48;;;;;;;3.22;2.50;;;4.70;99.90;;;;;;4906325;29;20024;-77
2022/01/07 03:48:13;;;;;;;2.92;2.63;;;4.70;99.90;;;;;;4918229;29;20079;-77
2022/01/07 03:50:39;;;;;;;4.47;2.35;;;4.60;99.90;;;;;;4918526;29;20044;-78
2022/01/07 03:53:05;;;;;;;6.78;3.42;;;4.60;99.90;;;;;;4918245;29;20028;-77
2022/01/07 03:55:32;;;;;;;4.95;3.35;;;4.60;99.90;;;;;;4918374;29;20098;-78
2022/01/07 03:57:58;;;;;;;3.30;2.85;;;4.60;99.90;;;;;;4918474;29;20020;-78
2022/01/07 04:00:33;;;;;;;7.80;3.15;;;4.60;99.90;;;;;;4918128;29;20149;-77
2022/01/07 04:03:12;;;;;;;3.20;2.90;;;4.50;99.90;;;;;;4918278;29;20135;-78
2022/01/07 04:05:37;;;;;;;5.15;2.83;;;4.50;99.90;;;;;;4900763;29;20028;-78
2022/01/07 04:08:05;;;;;;;3.92;2.95;;;4.50;99.90;;;;;;4917813;29;20160;-77
2022/01/07 04:10:31;;;;;;;6.88;2.95;;;4.40;99.90;;;;;;4918053;29;20042;-77
2022/01/07 04:12:56;;;;;;;4.32;2.95;;;4.50;99.90;;;;;;4918254;29;20103;-78
2022/01/07 04:15:23;;;;;;;3.30;3.00;;;4.50;99.90;;;;;;4918071;29;20111;-78
2022/01/07 04:17:51;;;;;;;4.22;2.95;;;4.40;99.90;;;;;;4918184;29;20032;-78
2022/01/07 04:20:36;;;;;;;4.15;2.75;;;4.40;99.90;;;;;;4917594;29;20104;-77
2022/01/07 04:23:05;;;;;;;5.80;2.58;;;4.40;99.90;;;;;;4917577;29;20059;-78
2022/01/07 04:25:31;;;;;;;3.92;2.60;;;4.40;99.90;;;;;;4901094;29;20119;-77
2022/01/07 04:28:00;;;;;;;3.42;2.67;;;4.40;99.90;;;;;;4917865;29;20378;-78
2022/01/07 04:30:32;;;;;;;3.80;2.80;;;4.40;99.90;;;;;;4917543;29;20036;-78
2022/01/07 04:32:59;;;;;;;6.25;3.03;;;4.30;99.90;;;;;;4917763;29;20024;-78
2022/01/07 04:35:25;;;;;;;3.58;2.45;;;4.30;99.90;;;;;;4917723;29;20392;-78
2022/01/07 04:37:51;;;;;;;4.82;3.00;;;4.30;99.90;;;;;;4917579;29;20470;-77
2022/01/07 04:40:18;;;;;;;2.92;2.30;;;4.30;99.90;;;;;;4917401;29;20070;-78
2022/01/07 04:42:44;;;;;;;3.05;2.60;;;4.30;99.90;;;;;;4900578;29;20020;-78
2022/01/07 04:45:11;;;;;;;7.05;2.45;;;4.30;99.90;;;;;;4917516;29;20028;-78
2022/01/07 04:47:39;;;;;;;2.50;2.15;;;4.30;99.90;;;;;;4900681;29;20036;-77
2022/01/07 04:50:10;;;;;;;3.17;2.72;;;4.30;99.90;;;;;;4910808;29;20059;-77
2022/01/07 04:52:36;;;;;;;6.68;2.67;;;4.20;99.90;;;;;;4906332;29;20039;-78
2022/01/07 04:55:02;;;;;;;3.13;2.25;;;4.20;99.90;;;;;;4917133;29;20481;-78
2022/01/07 04:57:27;;;;;;;3.88;2.33;;;4.20;99.90;;;;;;4917000;29;20036;-76
2022/01/07 04:59:53;;;;;;;4.15;2.25;;;4.20;99.90;;;;;;4917304;29;20474;-77
2022/01/07 05:02:22;;;;;;;7.80;2.42;;;4.20;99.90;;;;;;4910842;29;20037;-78
2022/01/07 05:04:48;;;;;;;3.63;2.47;;;4.30;99.90;;;;;;4898449;29;20028;-78
2022/01/07 05:07:14;;;;;;;4.20;2.30;;;4.30;99.90;;;;;;4898284;29;20478;-77
2022/01/07 05:09:39;;;;;;;4.85;2.70;;;4.20;99.90;;;;;;4897936;29;20037;-78
2022/01/07 05:12:05;;;;;;;3.58;2.17;;;4.20;99.90;;;;;;4906989;29;20047;-77
2022/01/07 05:14:31;;;;;;;2.38;2.00;;;4.10;99.90;;;;;;4899269;29;20475;-77
2022/01/07 05:16:57;;;;;;;3.92;2.40;;;4.20;99.90;;;;;;4897940;29;20498;-77
2022/01/07 05:19:23;;;;;;;7.07;2.25;;;4.10;99.90;;;;;;4900597;29;20477;-78
2022/01/07 05:21:49;;;;;;;3.17;2.20;;;4.10;99.90;;;;;;4908283;29;20050;-77
2022/01/07 05:24:14;;;;;;;4.47;2.55;;;4.10;99.90;;;;;;4901043;29;20024;-78
2022/01/07 05:26:41;;;;;;;2.45;1.85;;;4.10;99.90;;;;;;4897662;29;20469;-78
2022/01/07 05:29:07;;;;;;;4.03;2.63;;;4.10;99.90;;;;;;4897446;29;20087;-76
2022/01/07 05:31:33;;;;;;;2.58;2.15;;;4.10;99.90;;;;;;4902755;29;20095;-77
2022/01/07 05:33:59;;;;;;;2.58;2.35;;;4.10;99.90;;;;;;4903324;29;20438;-78
2022/01/07 05:36:25;;;;;;;4.07;2.35;;;4.00;99.90;;;;;;4896881;29;20035;-77
2022/01/07 05:38:51;;;;;;;3.90;2.60;;;4.00;99.90;;;;;;4897511;29;20477;-78
2022/01/07 05:41:17;;;;;;;5.35;2.40;;;4.00;99.90;;;;;;4904387;29;20078;-77
2022/01/07 05:43:43;;;;;;;4.20;2.33;;;4.10;99.90;;;;;;4905068;29;20466;-77
2022/01/07 05:46:10;;;;;;;2.65;2.15;;;4.10;99.90;;;;;;4897449;29;20025;-77
2022/01/07 05:48:36;;;;;;;2.58;2.20;;;4.00;99.90;;;;;;4897283;29;20485;-77
2022/01/07 05:51:03;;;;;;;2.97;2.10;;;4.00;99.90;;;;;;4904458;29;20040;-77
2022/01/07 05:53:28;;;;;;;3.13;2.55;;;4.00;99.90;;;;;;4907725;29;20047;-77
2022/01/07 05:55:54;;;;;;;2.45;2.25;;;4.00;99.90;;;;;;4916603;29;20444;-77
2022/01/07 05:58:20;;;;;;;2.70;2.33;;;4.00;99.90;;;;;;4916624;29;20051;-77
2022/01/07 06:00:46;;;;;;;3.15;2.20;;;4.00;99.90;;;;;;4914135;29;20028;-74
2022/01/07 06:03:12;;;;;;;3.47;2.40;;;4.00;99.90;;;;;;4905834;29;20075;-77
2022/01/07 06:05:37;;;;;;;2.83;2.20;;;4.00;99.90;;;;;;4880832;29;20033;-77
2022/01/07 06:08:03;;;;;;;2.80;2.42;;;4.00;99.90;;;;;;4897681;29;20028;-77
2022/01/07 06:10:29;;;;;;;2.65;2.10;;;4.00;99.90;;;;;;4881097;29;20041;-77
2022/01/07 06:12:55;;;;;;;2.33;2.10;;;3.90;99.90;;;;;;4907230;29;20039;-78
2022/01/07 06:15:21;;;;;;;3.72;2.30;;;3.90;99.90;;;;;;4897503;29;20028;-77
2022/01/07 06:17:47;;;;;;;2.63;2.20;;;3.90;99.90;;;;;;4897666;29;20029;-77
2022/01/07 06:20:13;;;;;;;3.90;2.50;;;3.90;99.90;;;;;;4896752;29;20036;-76
2022/01/07 06:22:39;;;;;;;3.45;2.40;;;3.90;99.90;;;;;;4902342;29;20060;-77
2022/01/07 06:25:05;;;;;;;3.00;2.63;;;3.90;99.90;;;;;;4897658;29;20088;-77
2022/01/07 06:27:31;;;;;;;6.90;2.50;;;3.80;99.90;;;;;;4897366;29;20052;-77
2022/01/07 06:29:57;;;;;;;6.30;3.20;;;3.80;99.90;;;;;;4880230;29;20119;-77
2022/01/07 06:32:24;;;;;;;3.38;2.47;;;3.80;99.90;;;;;;4896830;29;20431;-77
2022/01/07 06:34:50;;;;;;;5.07;2.90;;;3.70;99.90;;;;;;4897060;29;20029;-76
2022/01/07 06:37:16;;;;;;;4.10;2.75;;;3.70;99.90;;;;;;4897381;29;20059;-77
2022/01/07 06:39:41;;;;;;;5.82;2.55;;;3.70;99.90;;;;;;4912653;29;20027;-74
2022/01/07 06:42:07;;;;;;;4.80;2.53;;;3.70;99.90;;;;;;4916111;29;20366;-77
2022/01/07 06:44:33;;;;;;;5.20;2.72;;;3.70;99.90;;;;;;4916045;29;20105;-78
2022/01/07 06:46:59;;;;;;;3.90;2.63;;;3.60;99.90;;;;;;4916188;29;20028;-76
2022/01/07 06:49:25;;;;;;;5.18;3.22;;;3.60;99.90;;;;;;4915577;29;20063;-78
2022/01/07 06:51:51;;;;;;;4.97;2.88;;;3.60;99.90;;;;;;4890888;29;20370;-77
2022/01/07 06:54:17;;;;;;;4.55;2.80;;;3.60;99.90;;;;;;4897849;29;20091;-77
2022/01/07 06:56:44;;;;;;;3.90;2.72;;;3.60;99.90;;;;;;4900721;29;20049;-76
2022/01/07 06:59:12;;;;;;;7.10;2.40;;;3.60;99.90;;;;;;4900600;29;20063;-77
2022/01/07 07:01:39;;;;;;;4.28;3.05;;;3.60;99.90;;;;;;4899781;29;20425;-75
2022/01/07 07:04:05;;;;;;;4.20;2.80;;;3.60;99.90;;;;;;4899144;29;20035;-77
2022/01/07 07:06:30;;;;;;;5.35;2.67;;;3.60;99.90;;;;;;4899796;29;20036;-78
2022/01/07 07:08:56;;;;;;;6.32;2.75;;;3.60;99.90;;;;;;4899934;29;20025;-76
2022/01/07 07:11:22;;;;;;;3.80;2.80;;;3.60;99.90;;;;;;4900264;29;20402;-78
2022/01/07 07:13:47;;;;;;;3.85;2.63;;;3.60;99.90;;;;;;4900639;29;20103;-78
2022/01/07 07:16:14;;;;;;;3.58;2.40;;;3.70;99.90;;;;;;4900710;29;20040;-77
2022/01/07 07:18:40;;;;;;;4.18;2.65;;;4.00;99.90;;;;;;4900345;29;20039;-78
2022/01/07 07:21:06;;;;;;;4.28;2.55;;;4.10;99.90;;;;;;4900604;29;20020;-77
2022/01/07 07:23:31;;;;;;;2.67;2.22;;;4.40;99.90;;;;;;4900325;29;20373;-77
2022/01/07 07:25:57;;;;;;;4.20;2.80;;;4.60;99.90;;;;;;4900032;29;20030;-77
2022/01/07 07:28:22;;;;;;;4.38;2.90;;;4.70;99.90;;;;;;4899789;29;20569;-77
2022/01/07 07:30:50;;;;;;;5.40;2.78;;;4.80;99.90;;;;;;4900004;29;20048;-76
2022/01/07 07:38:36;;;;;;;7.75;2.92;;;5.50;99.90;;;;;;4900132;29;20027;-77
2022/01/07 07:41:06;;;;;;;5.13;2.55;;;5.70;99.90;;;;;;4900148;29;20021;-76
2022/01/07 07:43:32;;;;;;;7.53;2.63;;;5.90;99.90;;;;;;4899961;29;20061;-76
2022/01/07 07:45:58;;;;;;;5.68;2.90;;;6.10;99.90;;;;;;4899621;29;20024;-77
2022/01/07 07:48:24;;;;;;;6.00;2.97;;;6.00;99.90;;;;;;4899552;29;20036;-76
2022/01/07 07:50:50;;;;;;;4.53;3.13;;;6.10;99.90;;;;;;4900025;29;20064;-77
2022/01/07 07:53:16;;;;;;;5.13;2.90;;;6.10;99.90;;;;;;4900032;29;20029;-76
2022/01/07 07:55:43;;;;;;;4.43;3.15;;;6.30;99.90;;;;;;4899934;29;20084;-77
2022/01/07 07:58:09;;;;;;;6.63;3.50;;;6.40;99.90;;;;;;4899813;29;20025;-77
2022/01/07 08:00:35;;;;;;;5.68;3.42;;;6.30;99.90;;;;;;4899836;29;20035;-76
2022/01/07 08:03:01;;;;;;;13.00;3.30;;;6.40;99.90;;;;;;4899936;29;20028;-77
2022/01/07 08:05:27;;;;;;;6.22;3.20;;;6.60;99.90;;;;;;4899146;29;20500;-77
2022/01/07 08:07:52;;;;;;;7.28;2.92;;;6.70;99.90;;;;;;4899574;29;20033;-77
2022/01/07 08:10:23;;;;;;;3.65;2.75;;;6.90;99.90;;;;;;4899445;29;20033;-77
2022/01/07 08:18:13;;;;;;;4.38;2.70;;;7.30;99.90;;;;;;4899098;29;20080;-77
2022/01/07 08:20:39;;;;;;;4.80;3.15;;;7.60;99.90;;;;;;4899467;29;20024;-77
2022/01/07 08:23:05;;;;;;;9.52;4.47;;;8.00;99.70;;;;;;4899406;29;20029;-74
2022/01/07 08:25:32;;;;;;;6.97;3.53;;;8.30;99.70;;;;;;4898951;29;20032;-77
2022/01/07 08:28:02;;;;;;;7.35;3.60;;;8.40;99.10;;;;;;4898949;29;20121;-76
2022/01/07 08:30:35;;;;;;;6.78;4.05;;;8.50;98.50;;;;;;4898888;29;20039;-76
2022/01/07 08:35:45;;;;;;;6.50;2.95;;;8.50;98.40;;;;;;4898179;29;20060;-75
2022/01/07 08:38:12;;;;;;;6.90;4.05;;;8.30;98.20;;;;;;4900614;29;20025;-78
2022/01/07 08:40:38;;;;;;;5.30;4.30;;;8.60;98.50;;;;;;4900947;29;20035;-76
2022/01/07 08:43:03;;;;;;;5.20;3.55;;;8.70;98.10;;;;;;4900712;29;20021;-78
2022/01/07 08:45:29;;;;;;;5.95;4.80;;;9.30;97.10;;;;;;4900911;29;20333;-78
2022/01/07 08:47:55;;;;;;;4.95;3.30;;;9.40;96.70;;;;;;4897855;29;20474;-78
2022/01/07 08:50:22;;;;;;;6.38;3.38;;;9.50;96.00;;;;;;4897162;29;20460;-77
2022/01/07 08:52:48;;;;;;;17.25;12.57;;;9.50;95.50;;;;;;4900959;29;20028;-79
2022/01/07 08:55:13;;;;;;;27.92;20.15;;;9.60;95.60;;;;;;4897305;29;20434;-77
2022/01/07 08:57:39;;;;;;;8.90;4.63;;;10.00;95.00;;;;;;4897318;29;20028;-79
2022/01/07 09:00:06;;;;;;;8.55;4.65;;;10.30;93.90;;;;;;4897701;29;20044;-79
2022/01/07 09:02:31;;;;;;;7.85;4.45;;;10.60;94.00;;;;;;4898060;29;20035;-79
2022/01/07 09:04:57;;;;;;;16.10;6.43;;;10.80;93.30;;;;;;4897703;29;20108;-77
2022/01/07 09:07:23;;;;;;;6.38;3.72;;;11.10;93.10;;;;;;4898202;29;20069;-78
2022/01/07 09:09:48;;;;;;;6.22;3.90;;;11.20;92.40;;;;;;4881099;29;20097;-80
2022/01/07 09:12:14;;;;;;;12.40;6.95;;;11.10;92.60;;;;;;4897710;29;20016;-81
2022/01/07 09:14:40;;;;;;;4.90;3.13;;;10.90;92.10;;;;;;4897716;29;20080;-81
2022/01/07 09:17:06;;;;;;;4.18;2.95;;;10.30;92.40;;;;;;4897808;29;20017;-81
2022/01/07 09:19:32;;;;;;;5.10;3.15;;;9.90;93.00;;;;;;4897270;29;20462;-81
2022/01/07 09:21:58;;;;;;;5.53;3.20;;;9.20;93.30;;;;;;4897450;29;20084;-82
2022/01/07 09:24:29;;;;;;;6.93;3.47;;;8.90;93.70;;;;;;4897665;29;20024;-81
2022/01/07 09:26:55;;;;;;;3.75;2.70;;;8.80;94.10;;;;;;4897394;29;20057;-82
2022/01/07 09:29:24;;;;;;;7.07;3.70;;;8.60;94.70;;;;;;4896987;29;20083;-82
2022/01/07 09:31:55;;;;;;;5.35;3.42;;;8.40;95.10;;;;;;4900199;29;20029;-82
2022/01/07 09:34:21;;;;;;;5.55;3.58;;;8.60;95.40;;;;;;4897361;29;20068;-80
2022/01/07 09:36:46;;;;;;;5.35;3.38;;;8.80;95.40;;;;;;4897646;29;20706;-81
2022/01/07 09:39:12;;;;;;;6.97;3.40;;;8.90;94.70;;;;;;4897158;29;20071;-80
2022/01/07 09:41:39;;;;;;;6.18;3.83;;;8.80;94.70;;;;;;4899932;29;20020;-82
2022/01/07 09:44:11;;;;;;;5.25;3.10;;;8.70;95.20;;;;;;4897182;29;20020;-82
2022/01/07 09:46:39;;;;;;;4.72;3.15;;;8.60;95.20;;;;;;4899632;29;20025;-81
2022/01/07 09:49:05;;;;;;;6.30;3.30;;;8.60;95.20;;;;;;4896954;29;20501;-79
2022/01/07 09:51:31;;;;;;;7.28;4.55;;;8.70;94.70;;;;;;4897423;29;20525;-79
2022/01/07 09:53:59;;;;;;;18.60;3.83;;;9.00;95.20;;;;;;4899916;29;20031;-79
2022/01/07 09:56:25;;;;;;;5.40;3.35;;;9.00;95.10;;;;;;4896866;29;20024;-79
2022/01/07 09:58:51;;;;;;;6.00;3.30;;;9.00;95.60;;;;;;4899120;29;20454;-82
2022/01/07 10:01:19;;;;;;;9.43;4.43;;;8.90;95.70;;;;;;4900339;29;20032;-81
2022/01/07 10:03:46;;;;;;;7.95;3.60;;;9.00;95.50;;;;;;4897116;29;20111;-79
2022/01/07 10:06:26;;;;;;;5.57;3.83;;;8.90;95.80;;;;;;4897019;29;20442;-81
2022/01/07 10:09:03;;;;;;;8.20;3.95;;;8.90;96.20;;;;;;4896987;29;20032;-81
2022/01/07 10:11:29;;;;;;;4.75;3.35;;;8.80;96.60;;;;;;4899655;29;20512;-82
2022/01/07 10:14:22;;;;;;;4.93;3.40;;;9.00;96.30;;;;;;4899211;29;20032;-82
2022/01/07 10:16:53;;;;;;;;;;;9.00;95.80;;;;;;4915803;29;20032;-82
2022/01/07 10:19:39;;;;;;;5.68;3.60;;;9.20;95.50;;;;;;4915935;29;20284;-82
2022/01/07 10:22:14;;;;;;;9.80;3.55;;;8.90;94.80;;;;;;4916330;29;20055;-81
2022/01/07 10:25:01;;;;;;;6.60;3.80;;;8.90;94.40;;;;;;4909036;29;20032;-82
2022/01/07 10:27:38;;;;;;;5.95;4.13;;;9.10;95.10;;;;;;4910410;29;20054;-82
2022/01/07 10:30:15;;;;;;;4.32;2.70;;;9.20;93.40;;;;;;4899943;29;20055;-79
2022/01/07 10:32:41;;;;;;;5.80;3.03;;;9.20;92.90;;;;;;4900352;29;20044;-81
2022/01/07 10:35:11;;;;;;;4.25;2.90;;;9.40;92.60;;;;;;4883621;29;20021;-81
2022/01/07 10:37:50;;;;;;;5.35;3.40;;;9.40;92.70;;;;;;4901301;29;20028;-81
2022/01/07 10:40:27;;;;;;;3.63;2.70;;;9.80;93.20;;;;;;4900051;29;20068;-80
2022/01/07 10:42:55;;;;;;;5.85;2.95;;;9.70;91.90;;;;;;4903606;29;20459;-80
2022/01/07 10:45:21;;;;;;;7.22;3.42;;;9.40;91.80;;;;;;4903475;29;20494;-82
2022/01/07 10:47:52;;;;;;;4.43;2.83;;;9.30;92.20;;;;;;4900519;29;20028;-82
2022/01/07 10:50:24;;;;;;;8.75;2.97;;;9.70;92.20;;;;;;4904662;29;20525;-81
2022/01/07 10:52:51;;;;;;;5.72;3.35;;;10.10;91.80;;;;;;4883163;29;20029;-81
2022/01/07 10:55:19;;;;;;;7.38;3.33;;;9.90;91.90;;;;;;4898887;29;20127;-80
2022/01/07 10:57:51;;;;;;;4.47;2.85;;;10.20;92.00;;;;;;4901096;29;20119;-81
2022/01/07 11:00:19;;;;;;;5.13;3.00;;;10.40;91.30;;;;;;4905583;29;20040;-82
2022/01/07 11:02:45;;;;;;;4.18;2.53;;;10.00;91.60;;;;;;4900370;29;20028;-81
2022/01/07 11:05:12;;;;;;;4.22;2.72;;;9.90;91.40;;;;;;4900266;29;20035;-82
2022/01/07 11:07:38;;;;;;;5.03;3.05;;;10.00;91.50;;;;;;4902515;29;20020;-82
2022/01/07 11:10:05;;;;;;;4.68;2.53;;;10.00;91.40;;;;;;4900591;29;20036;-83
2022/01/07 11:12:32;;;;;;;4.57;2.55;;;9.90;91.10;;;;;;4902095;29;20028;-84
2022/01/07 11:14:58;;;;;;;5.93;3.55;;;9.90;90.90;;;;;;4899870;29;20028;-84
2022/01/07 11:17:24;;;;;;;6.00;2.95;;;10.00;90.70;;;;;;4904966;29;20017;-82
2022/01/07 11:20:01;;;;;;;3.80;2.72;;;9.90;91.70;;;;;;4899452;29;20117;-84
2022/01/07 11:22:28;;;;;;;3.83;2.90;;;9.90;91.10;;;;;;4902527;29;20031;-82
2022/01/07 11:24:56;;;;;;;5.30;3.38;;;10.00;91.30;;;;;;4903694;29;20080;-81
2022/01/07 11:27:28;;;;;;;6.18;3.47;;;10.00;91.10;;;;;;4882866;29;20020;-82
2022/01/07 11:30:18;;;;;;;5.45;3.13;;;9.80;91.40;;;;;;4899772;29;20107;-81
2022/01/07 11:32:46;;;;;;;4.55;3.10;;;9.90;91.40;;;;;;4880701;29;20449;-82
2022/01/07 11:35:20;;;;;;;6.15;3.45;;;9.70;91.00;;;;;;4901530;29;20032;-83
2022/01/07 11:37:53;;;;;;;4.75;3.03;;;9.50;91.70;;;;;;4899394;29;20024;-82
2022/01/07 11:40:31;;;;;;;5.40;3.25;;;9.70;91.80;;;;;;4898722;29;20100;-83
2022/01/07 11:43:04;;;;;;;4.30;3.00;;;9.90;90.80;;;;;;4899353;29;20032;-82
2022/01/07 11:45:33;;;;;;;5.22;3.10;;;10.00;90.60;;;;;;4881377;29;20482;-81
2022/01/07 11:48:14;;;;;;;4.40;2.95;;;10.00;90.40;;;;;;4899081;29;20512;-80
2022/01/07 11:51:00;;;;;;;6.75;3.33;;;10.00;90.60;;;;;;4898234;29;20040;-80
2022/01/07 11:53:48;;;;;;;4.78;2.80;;;9.80;91.20;;;;;;4894441;29;20503;-79
2022/01/07 11:56:17;;;;;;;5.05;2.92;;;9.50;91.00;;;;;;4905585;29;20263;-80
2022/01/07 11:58:52;;;;;;;4.82;3.33;;;9.30;91.30;;;;;;4898926;29;20548;-84
2022/01/07 12:01:30;;;;;;;9.98;3.72;;;9.20;91.30;;;;;;4898871;29;20087;-82
2022/01/07 12:03:59;;;;;;;6.00;3.88;;;8.90;91.70;;;;;;4900815;29;20036;-82
2022/01/07 12:06:25;;;;;;;12.65;6.80;;;8.80;92.00;;;;;;4899032;29;20028;-82
2022/01/07 12:09:04;;;;;;;8.63;5.72;;;8.80;92.20;;;;;;4898837;29;20031;-82
2022/01/07 12:11:31;;;;;;;12.23;6.78;;;8.80;92.40;;;;;;4898581;29;20744;-81
2022/01/07 12:13:57;;;;;;;7.60;4.28;;;8.50;92.30;;;;;;4898368;29;20025;-82
2022/01/07 12:16:30;;;;;;;8.85;5.10;;;8.50;92.90;;;;;;4899213;29;20020;-75
2022/01/07 12:19:16;;;;;;;5.57;3.80;;;8.50;93.00;;;;;;4900208;29;20063;-82
2022/01/07 12:21:55;;;;;;;9.85;5.15;;;8.50;92.70;;;;;;4893230;29;20060;-81
2022/01/07 12:24:28;;;;;;;4.20;3.10;;;8.30;92.90;;;;;;4898642;29;20044;-81
2022/01/07 12:27:18;;;;;;;6.07;3.80;;;8.20;93.00;;;;;;4900408;29;20028;-80
2022/01/07 12:29:46;;;;;;;5.88;3.83;;;8.10;93.00;;;;;;4915253;29;20569;-81
2022/01/07 12:32:13;;;;;;;5.43;3.20;;;7.90;93.20;;;;;;4916300;29;20024;-79
2022/01/07 12:34:49;;;;;;;5.75;3.40;;;7.80;93.40;;;;;;4916412;29;20024;-78
2022/01/07 12:37:20;;;;;;;5.80;3.17;;;7.70;93.70;;;;;;4916910;29;20032;-80
2022/01/07 12:39:51;;;;;;;4.93;2.97;;;7.70;93.70;;;;;;4908057;29;20020;-81
2022/01/07 12:42:18;;;;;;;10.07;5.28;;;7.70;93.60;;;;;;4897476;29;20382;-80
2022/01/07 12:44:46;;;;;;;7.95;4.88;;;7.70;94.00;;;;;;4900222;29;20067;-80
2022/01/07 12:47:16;;;;;;;5.60;3.40;;;7.60;94.00;;;;;;4898777;29;20080;-79
2022/01/07 12:49:48;;;;;;;5.55;3.00;;;7.60;94.10;;;;;;4898168;29;20033;-77
2022/01/07 12:52:32;;;;;;;9.27;3.20;;;7.60;93.40;;;;;;4897156;29;20119;-76
2022/01/07 12:54:57;;;;;;;4.60;3.00;;;7.50;93.70;;;;;;4897349;29;20112;-78
2022/01/07 12:57:42;;;;;;;9.93;4.03;;;7.50;93.50;;;;;;4883583;29;20119;-77
2022/01/07 13:00:12;;;;;;;5.00;3.45;;;7.50;93.90;;;;;;4880639;29;20059;-76
2022/01/07 13:02:40;;;;;;;8.07;3.42;;;7.40;94.20;;;;;;4897772;29;20032;-77
2022/01/07 13:05:09;;;;;;;5.00;3.58;;;7.40;94.70;;;;;;4897315;29;20076;-79
2022/01/07 13:07:43;;;;;;;8.80;3.17;;;7.30;94.10;;;;;;4897647;29;20081;-78
2022/01/07 13:10:10;;;;;;;10.13;3.38;;;7.20;93.90;;;;;;4896607;29;20028;-79
2022/01/07 13:12:37;;;;;;;8.10;4.35;;;7.10;93.90;;;;;;4897027;29;20035;-81